Terminal Aerodrome Forecast
Issued by NWS

Home | Current Version | Previous Version | Text Only | Print | Product List | Glossary Off
Versions: 1 2 3 4 5 6 7 8 9 10 11 12 13 14 15 16 17 18 19 20 21 22 23 24 25 26 27 28 29 30

000
FTUS41 KCTP 201548 AAB
TAFBFD
TAF AMD
KBFD 201548Z 2016/2112 24010G19KT P6SM SKC WS020/26052KT
     FM202100 27009KT P6SM SKC
     FM210500 26012KT P6SM SCT015 BKN025
     FM210900 28007KT P6SM BKN012 OVC020=

USA.gov is the U.S. government's official web portal to all federal, state and local government web resources and services.